This is the latest recevied weather packets stored in our database for station/object OE-11372. If no packets are shown the sender has not sent any weather packets the latest 10 day(s).
| Time | Temp. | Humidity | Pressure | Rain* | Wind** | Luminosity | Snow |
|---|---|---|---|---|---|---|---|
| 1787771103 | 17.22° C | 80% | 854.1 hPa | 0 mm | - | 0 W/m² | - |
| 1787770503 | 17.78° C | 79% | 853.9 hPa | 0 mm | - | 0 W/m² | - |
| 1787769676 | 17.78° C | 78% | 854 hPa | 0 mm | - | 0 W/m² | - |
| 1787769303 | 17.78° C | 78% | 853.8 hPa | 0 mm | - | 0 W/m² | - |
| 1787768703 | 18.33° C | 77% | 853.9 hPa | 0 mm | - | 0 W/m² | - |
| 1787767877 | 18.33° C | 77% | 853.9 hPa | 0 mm | - | 0 W/m² | - |
| 1787767503 | 18.89° C | 77% | 853.9 hPa | 0 mm | - | 8 W/m² | - |
| 1787766903 | 18.89° C | 75% | 853.9 hPa | 0 mm | - | 16 W/m² | - |
| 1787766076 | 19.44° C | 74% | 853.9 hPa | 0 mm | - | 16 W/m² | - |
| 1787765703 | 20° C | 73% | 853.9 hPa | 0 mm | - | 33 W/m² | - |
| 1787765102 | 20° C | 72% | 854 hPa | 0 mm | - | 58 W/m² | - |
| 1787764276 | 20.56° C | 71% | 854 hPa | 0 mm | - | 82 W/m² | - |
| 1787763903 | 20.56° C | 70% | 854 hPa | 0 mm | - | 74 W/m² | - |
| 1787763302 | 20.56° C | 68% | 854 hPa | 0 mm | - | 82 W/m² | - |
| 1787762476 | 20.56° C | 65% | 854 hPa | 0 mm | - | 99 W/m² | - |
| 1787762103 | 21.11° C | 67% | 854 hPa | 0 mm | - | 107 W/m² | - |
| 1787761503 | 21.67° C | 64% | 854.1 hPa | 0 mm | - | 99 W/m² | - |
| 1787760676 | 22.22° C | 62% | 854.2 hPa | 0 mm | - | 99 W/m² | - |
| 1787760303 | 22.78° C | 59% | 854.3 hPa | 0 mm | - | 115 W/m² | - |
| 1787759703 | 23.33° C | 58% | 854.4 hPa | 0 mm | - | 198 W/m² | - |
| 1787758876 | 24.44° C | 49% | 854.6 hPa | 0 mm | - | 346 W/m² | - |
| 1787758502 | 24.44° C | 54% | 854.6 hPa | 0 mm | - | 346 W/m² | - |
| 1787757903 | 23.89° C | 51% | 854.5 hPa | 0 mm | - | 329 W/m² | - |
| 1787757076 | 24.44° C | 46% | 854.6 hPa | 0 mm | - | 461 W/m² | - |
| 1787756703 | 24.44° C | 48% | 854.7 hPa | 0 mm | - | 346 W/m² | - |
* Rain latest hour (hover to see other rain measurements)
** Current wind speed in m/s (hover to see current wind gust speed)